createdAt,value
2022-11-08T00:02:09.757Z,5.11
2022-11-08T00:04:36.710Z,4.97
2022-11-08T00:07:22.291Z,4.91
2022-11-08T00:10:07.803Z,5.03
2022-11-08T00:12:53.561Z,5.00
2022-11-08T00:15:20.389Z,5.13
2022-11-08T00:17:47.319Z,5.11
2022-11-08T00:20:14.343Z,5.19
2022-11-08T00:22:41.460Z,5.18
2022-11-08T00:25:10.007Z,4.91
2022-11-08T00:27:36.862Z,4.54
2022-11-08T00:30:04.377Z,4.36
2022-11-08T00:32:31.297Z,4.17
2022-11-08T00:34:58.149Z,4.10
2022-11-08T00:37:25.979Z,4.02
2022-11-08T00:39:52.908Z,4.04
2022-11-08T00:42:19.755Z,3.86
2022-11-08T00:44:46.779Z,3.81
2022-11-08T00:47:13.938Z,3.80
2022-11-08T00:49:40.779Z,3.87
2022-11-08T00:52:07.707Z,4.02
2022-11-08T00:54:35.146Z,4.25
2022-11-08T00:57:02.037Z,4.48
2022-11-08T00:59:28.938Z,4.52
2022-11-08T01:01:55.920Z,4.63
2022-11-08T01:04:22.847Z,4.62
2022-11-08T01:06:49.745Z,4.72
2022-11-08T01:09:16.772Z,4.77
2022-11-08T01:11:46.521Z,4.94
2022-11-08T01:14:14.816Z,4.94
2022-11-08T01:16:42.285Z,4.92
2022-11-08T01:19:09.774Z,4.89
2022-11-08T01:21:37.417Z,4.85
2022-11-08T01:24:04.704Z,4.82
2022-11-08T01:26:31.614Z,4.77
2022-11-08T01:28:59.172Z,4.73
2022-11-08T01:31:29.735Z,4.63
2022-11-08T01:33:57.612Z,4.51
2022-11-08T01:36:26.159Z,4.40
2022-11-08T01:38:54.024Z,4.22
2022-11-08T01:41:23.011Z,4.10
2022-11-08T01:43:59.628Z,4.15
2022-11-08T01:46:39.696Z,4.09
2022-11-08T01:49:43.487Z,4.08
2022-11-08T01:52:16.015Z,4.21
2022-11-08T01:55:01.286Z,4.33
2022-11-08T01:57:51.260Z,4.41
2022-11-08T02:00:18.540Z,4.44
2022-11-08T02:02:52.707Z,4.50
2022-11-08T02:05:26.206Z,4.71
2022-11-08T02:08:24.571Z,5.02
2022-11-08T02:10:53.176Z,5.29
2022-11-08T02:13:24.103Z,5.36
2022-11-08T02:15:51.143Z,5.39
2022-11-08T02:18:19.679Z,5.42
2022-11-08T02:21:17.950Z,5.40
2022-11-08T02:23:47.501Z,5.25
2022-11-08T02:26:16.319Z,5.24
2022-11-08T02:28:45.882Z,5.14
2022-11-08T02:31:14.762Z,5.14
2022-11-08T02:33:42.360Z,5.10
2022-11-08T02:36:12.814Z,5.05
2022-11-08T02:38:53.467Z,5.08
2022-11-08T02:41:20.372Z,5.18
2022-11-08T02:43:47.305Z,5.11
2022-11-08T02:46:14.283Z,5.01
2022-11-08T02:48:41.128Z,5.01
2022-11-08T02:51:08.014Z,4.98
2022-11-08T02:53:34.954Z,5.07
2022-11-08T02:56:01.811Z,5.16
2022-11-08T02:58:28.781Z,5.17
2022-11-08T03:00:55.766Z,5.17
2022-11-08T03:03:22.778Z,5.15
2022-11-08T03:05:49.654Z,5.13
2022-11-08T03:08:17.207Z,5.08
2022-11-08T03:10:44.291Z,4.99
2022-11-08T03:13:11.262Z,4.90
2022-11-08T03:15:38.130Z,4.76
2022-11-08T03:18:05.490Z,4.69
2022-11-08T03:20:33.353Z,4.64
2022-11-08T03:23:03.032Z,4.44
2022-11-08T03:25:30.508Z,4.32
2022-11-08T03:28:03.087Z,4.15
2022-11-08T03:30:30.348Z,4.07
2022-11-08T03:32:57.269Z,4.07
2022-11-08T03:35:24.678Z,4.10
2022-11-08T03:37:55.825Z,4.09
2022-11-08T03:40:23.635Z,4.15
2022-11-08T03:42:50.719Z,4.25
2022-11-08T03:45:17.705Z,4.42
2022-11-08T03:47:46.891Z,4.71
2022-11-08T03:50:15.561Z,5.08
2022-11-08T03:52:43.053Z,5.26
2022-11-08T03:55:11.469Z,5.34
2022-11-08T03:57:40.194Z,5.35
2022-11-08T04:00:09.063Z,5.19
2022-11-08T04:02:38.621Z,5.01
2022-11-08T04:05:07.173Z,4.93
2022-11-08T04:07:34.399Z,4.98
2022-11-08T04:10:02.086Z,4.95
2022-11-08T04:12:47.497Z,4.80
2022-11-08T04:15:17.688Z,4.88
2022-11-08T04:18:09.701Z,4.94
2022-11-08T04:21:12.937Z,5.02
2022-11-08T04:23:39.843Z,5.13
2022-11-08T04:26:08.727Z,5.20
2022-11-08T04:28:37.537Z,5.28
2022-11-08T04:31:10.812Z,5.27
2022-11-08T04:33:37.817Z,5.32
2022-11-08T04:36:07.922Z,5.34
2022-11-08T04:38:35.469Z,5.41
2022-11-08T04:41:06.998Z,5.42
2022-11-08T04:43:34.094Z,5.33
2022-11-08T04:46:05.944Z,5.37
2022-11-08T04:48:33.243Z,5.32
2022-11-08T04:51:08.810Z,5.33
2022-11-08T04:53:35.874Z,5.40
2022-11-08T04:56:08.315Z,5.40
2022-11-08T04:58:37.482Z,5.50
2022-11-08T05:01:06.765Z,5.63
2022-11-08T05:03:34.161Z,5.68
2022-11-08T05:06:06.712Z,5.87
2022-11-08T05:08:34.262Z,5.99
2022-11-08T05:11:06.269Z,6.06
2022-11-08T05:13:33.883Z,6.07
2022-11-08T05:16:06.511Z,6.11
2022-11-08T05:18:34.192Z,5.97
2022-11-08T05:21:20.521Z,5.84
2022-11-08T05:23:49.598Z,5.54
2022-11-08T05:26:18.083Z,5.24
2022-11-08T05:28:45.407Z,5.02
2022-11-08T05:31:12.551Z,5.02
2022-11-08T05:33:39.526Z,5.12
2022-11-08T05:36:12.105Z,5.46
2022-11-08T05:38:39.763Z,5.63
2022-11-08T05:41:13.640Z,5.87
2022-11-08T05:43:40.978Z,6.07
2022-11-08T05:46:08.392Z,6.18
2022-11-08T05:48:35.552Z,6.27
2022-11-08T05:51:02.598Z,6.42
2022-11-08T05:53:29.519Z,6.56
2022-11-08T05:56:00.669Z,6.80
2022-11-08T05:58:28.493Z,7.09
2022-11-08T06:01:05.896Z,7.22
2022-11-08T06:03:33.312Z,7.21
2022-11-08T06:06:05.981Z,7.09
2022-11-08T06:08:33.120Z,6.91
2022-11-08T06:11:08.283Z,6.60
2022-11-08T06:13:35.550Z,6.35
2022-11-08T06:16:05.428Z,6.25
2022-11-08T06:18:33.650Z,6.25
2022-11-08T06:21:02.463Z,6.33
2022-11-08T06:23:29.698Z,6.49
2022-11-08T06:25:56.740Z,6.77
2022-11-08T06:28:24.157Z,7.03
2022-11-08T06:30:51.208Z,7.36
2022-11-08T06:33:19.546Z,7.68
2022-11-08T06:35:47.345Z,8.01
2022-11-08T06:38:14.260Z,8.32
2022-11-08T06:40:41.129Z,8.59
2022-11-08T06:43:08.035Z,8.79
2022-11-08T06:45:37.817Z,8.91
2022-11-08T06:48:06.455Z,9.15
2022-11-08T06:50:34.419Z,9.41
2022-11-08T06:53:03.944Z,9.54
2022-11-08T06:55:30.956Z,9.73
2022-11-08T06:57:57.978Z,9.89
2022-11-08T07:00:25.634Z,9.97
2022-11-08T07:02:57.450Z,10.15
2022-11-08T07:05:25.701Z,10.20
2022-11-08T07:07:52.808Z,10.27
2022-11-08T07:10:21.716Z,10.47
2022-11-08T07:12:50.924Z,10.57
2022-11-08T07:15:17.945Z,10.57
2022-11-08T07:17:44.821Z,10.90
2022-11-08T07:20:12.270Z,10.91
2022-11-08T07:22:39.156Z,10.75
2022-11-08T07:25:06.699Z,10.75
2022-11-08T07:27:34.090Z,10.66
2022-11-08T07:30:01.171Z,10.53
2022-11-08T07:32:28.156Z,10.57
2022-11-08T07:34:55.093Z,10.51
2022-11-08T07:37:22.005Z,10.53
2022-11-08T07:39:48.824Z,10.61
2022-11-08T07:42:15.647Z,10.48
2022-11-08T07:44:45.578Z,10.61
2022-11-08T07:47:12.424Z,10.50
2022-11-08T07:49:39.275Z,10.61
2022-11-08T07:52:06.183Z,10.67
2022-11-08T07:54:33.140Z,10.67
2022-11-08T07:57:00.001Z,10.71
2022-11-08T07:59:27.060Z,10.82
2022-11-08T08:01:54.006Z,10.71
2022-11-08T08:04:20.948Z,10.87
2022-11-08T08:06:47.780Z,10.91
2022-11-08T08:09:14.680Z,10.88
2022-11-08T08:11:41.522Z,10.89
2022-11-08T08:14:08.436Z,11.05
2022-11-08T08:16:36.975Z,11.16
2022-11-08T08:19:04.998Z,11.17
2022-11-08T08:21:32.193Z,11.20
2022-11-08T08:23:59.092Z,11.48
2022-11-08T08:26:25.960Z,11.49
2022-11-08T08:28:52.825Z,11.57
2022-11-08T08:31:19.681Z,11.79
2022-11-08T08:33:46.547Z,11.83
2022-11-08T08:36:13.514Z,11.88
2022-11-08T08:38:44.489Z,12.22
2022-11-08T08:41:11.832Z,12.06
2022-11-08T08:43:38.870Z,12.06
2022-11-08T08:46:06.660Z,12.14
2022-11-08T08:48:33.975Z,12.22
2022-11-08T08:51:00.846Z,12.32
2022-11-08T08:53:27.812Z,12.39
2022-11-08T08:55:54.837Z,12.29
2022-11-08T08:58:22.779Z,12.20
2022-11-08T09:03:36.808Z,12.50
2022-11-08T09:06:04.294Z,12.55
2022-11-08T09:08:31.364Z,12.56
2022-11-08T09:11:00.326Z,12.47
2022-11-08T09:13:28.769Z,12.67
2022-11-08T09:15:55.780Z,12.56
2022-11-08T09:18:23.384Z,12.88
2022-11-08T09:20:50.480Z,12.91
2022-11-08T09:23:18.147Z,12.78
2022-11-08T09:25:45.281Z,13.05
2022-11-08T09:28:12.339Z,13.25
2022-11-08T09:30:39.206Z,13.39
2022-11-08T09:33:06.215Z,13.55
2022-11-08T09:35:33.753Z,13.56
2022-11-08T09:38:00.709Z,13.11
2022-11-08T09:40:38.551Z,13.05
2022-11-08T09:43:24.855Z,13.35
2022-11-08T10:17:42.220Z,13.48
2022-11-08T10:20:39.150Z,13.49
2022-11-08T10:23:29.107Z,14.24
2022-11-08T10:26:00.652Z,14.17
2022-11-08T10:28:50.977Z,14.47
2022-11-08T10:31:21.294Z,14.51
2022-11-08T10:33:51.782Z,14.47
2022-11-08T10:36:21.692Z,14.84
2022-11-08T10:39:06.566Z,15.20
2022-11-08T10:41:54.952Z,15.15
2022-11-08T10:44:24.662Z,15.31
2022-11-08T10:46:59.511Z,15.69
2022-11-08T10:49:30.782Z,16.01
2022-11-08T10:52:00.010Z,15.65
2022-11-08T10:54:55.021Z,15.52
2022-11-08T10:57:33.462Z,15.86
2022-11-08T11:00:29.855Z,15.76
2022-11-08T11:03:23.428Z,15.40
2022-11-08T11:06:05.218Z,15.28
2022-11-08T11:08:33.357Z,15.60
2022-11-08T11:11:24.303Z,15.70
2022-11-08T11:14:18.426Z,15.53
2022-11-08T11:17:03.436Z,15.26
2022-11-08T11:19:30.833Z,15.44
2022-11-08T11:22:04.848Z,15.36
2022-11-08T11:24:32.425Z,15.07
2022-11-08T11:27:21.799Z,15.36
2022-11-08T11:29:48.650Z,14.85
2022-11-08T11:32:26.669Z,15.05
2022-11-08T11:34:56.392Z,14.90
2022-11-08T11:37:35.183Z,15.07
2022-11-08T11:40:20.023Z,14.85
2022-11-08T11:43:12.539Z,14.87
2022-11-08T11:45:42.380Z,15.10
2022-11-08T11:48:22.948Z,15.07
2022-11-08T11:50:50.283Z,15.01
2022-11-08T11:53:27.133Z,15.03
2022-11-08T11:56:12.866Z,14.84
2022-11-08T11:59:01.067Z,14.91
2022-11-08T12:01:43.054Z,15.07
2022-11-08T12:04:38.545Z,14.99
2022-11-08T12:07:17.261Z,14.74
2022-11-08T12:09:56.029Z,14.77
2022-11-08T12:12:28.398Z,14.91
2022-11-08T12:15:10.625Z,14.95
2022-11-08T12:17:56.146Z,14.95
2022-11-08T12:20:42.321Z,14.92
2022-11-08T12:23:30.725Z,14.71
2022-11-08T12:26:26.791Z,14.97
2022-11-08T12:28:59.570Z,14.82
2022-11-08T12:31:58.911Z,14.88
2022-11-08T12:35:02.901Z,15.14
2022-11-08T12:37:48.304Z,14.64
2022-11-08T12:40:38.827Z,14.53
2022-11-08T12:43:24.253Z,14.56
2022-11-08T12:46:11.202Z,14.80
2022-11-08T12:49:11.901Z,14.85
2022-11-08T12:52:02.262Z,14.60
2022-11-08T12:54:40.762Z,14.52
2022-11-08T12:57:16.899Z,14.12
2022-11-08T12:59:53.128Z,14.28
2022-11-08T13:02:30.403Z,14.24
2022-11-08T13:05:20.163Z,14.11
2022-11-08T13:07:52.868Z,14.30
2022-11-08T13:10:23.121Z,14.01
2022-11-08T13:12:52.464Z,14.01
2022-11-08T13:15:25.264Z,14.35
2022-11-08T13:18:07.573Z,14.32
2022-11-08T13:20:40.566Z,14.06
2022-11-08T13:23:15.700Z,14.16
2022-11-08T13:25:43.953Z,14.41
2022-11-08T13:28:39.631Z,14.58
2022-11-08T13:31:19.094Z,14.44
2022-11-08T13:34:28.139Z,14.28
2022-11-08T13:37:31.379Z,14.32
2022-11-08T13:40:27.720Z,14.12
2022-11-08T13:43:18.720Z,14.25
2022-11-08T13:45:46.370Z,14.20
2022-11-08T13:48:28.441Z,14.01
2022-11-08T13:50:56.529Z,14.18
2022-11-08T13:53:27.246Z,14.24
2022-11-08T13:56:04.697Z,14.37
2022-11-08T13:58:43.347Z,14.42
2022-11-08T14:01:19.066Z,14.06
2022-11-08T14:03:45.937Z,14.01
2022-11-08T14:06:36.378Z,13.74
2022-11-08T14:09:29.285Z,13.75
2022-11-08T14:12:03.139Z,13.77
2022-11-08T14:14:38.208Z,13.60
2022-11-08T14:17:23.308Z,13.72
2022-11-08T14:19:51.358Z,13.59
2022-11-08T14:22:25.294Z,13.38
2022-11-08T14:24:54.535Z,13.06
2022-11-08T14:27:40.963Z,13.08
2022-11-08T14:30:23.496Z,12.99
2022-11-08T14:33:19.913Z,12.74
2022-11-08T14:36:07.927Z,12.80
2022-11-08T14:38:45.091Z,12.77
2022-11-08T14:41:16.731Z,12.63
2022-11-08T14:43:45.505Z,12.72
2022-11-08T14:46:29.074Z,12.57
2022-11-08T14:48:57.424Z,12.51
2022-11-08T14:51:26.384Z,12.34
2022-11-08T14:53:56.804Z,12.35
2022-11-08T14:56:26.193Z,12.35
2022-11-08T14:58:54.837Z,12.23
2022-11-08T15:01:26.992Z,12.28
2022-11-08T15:04:00.886Z,12.13
2022-11-08T15:06:42.420Z,12.15
2022-11-08T15:09:34.013Z,12.11
2022-11-08T15:12:16.840Z,12.07
2022-11-08T15:15:01.950Z,11.95
2022-11-08T15:17:32.394Z,11.91
2022-11-08T15:20:22.124Z,11.91
2022-11-08T15:22:52.887Z,11.95
2022-11-08T15:25:30.407Z,11.82
2022-11-08T15:28:13.061Z,11.76
2022-11-08T15:30:43.777Z,11.78
2022-11-08T15:33:25.032Z,11.65
2022-11-08T15:35:52.377Z,11.63
2022-11-08T15:38:33.452Z,11.70
2022-11-08T15:41:03.839Z,11.68
2022-11-08T15:43:30.943Z,11.73
2022-11-08T15:46:02.582Z,11.63
2022-11-08T15:48:33.466Z,11.46
2022-11-08T15:51:00.437Z,11.49
2022-11-08T15:53:28.145Z,11.58
2022-11-08T15:56:04.735Z,11.54
2022-11-08T15:58:37.788Z,11.58
2022-11-08T16:01:05.153Z,11.55
2022-11-08T16:03:33.778Z,11.54
2022-11-08T16:06:01.123Z,11.61
2022-11-08T16:08:28.473Z,11.55
2022-11-08T16:10:59.807Z,11.54
2022-11-08T16:13:34.414Z,11.73
2022-11-08T16:16:03.823Z,11.61
2022-11-08T16:18:34.279Z,11.56
2022-11-08T16:21:01.972Z,11.62
2022-11-08T16:23:29.039Z,11.66
2022-11-08T16:25:57.570Z,11.61
2022-11-08T16:28:29.710Z,11.71
2022-11-08T16:30:57.296Z,11.71
2022-11-08T16:33:26.211Z,11.68
2022-11-08T16:35:58.468Z,11.73
2022-11-08T16:38:29.792Z,11.68
2022-11-08T16:40:56.769Z,11.59
2022-11-08T16:43:23.707Z,11.68
2022-11-08T16:46:05.081Z,11.63
2022-11-08T16:48:33.081Z,11.62
2022-11-08T16:51:02.364Z,11.56
2022-11-08T16:53:30.169Z,11.68
2022-11-08T16:55:58.009Z,11.57
2022-11-08T16:58:26.142Z,11.35
2022-11-08T17:00:53.111Z,11.31
2022-11-08T17:03:23.052Z,11.41
2022-11-08T17:05:50.988Z,11.43
2022-11-08T17:08:18.361Z,11.45
2022-11-08T17:10:45.682Z,11.60
2022-11-08T17:13:17.669Z,11.67
2022-11-08T17:15:45.312Z,11.58
2022-11-08T17:18:14.926Z,11.49
2022-11-08T17:20:42.573Z,11.58
2022-11-08T17:23:10.205Z,11.24
2022-11-08T17:25:39.950Z,11.15
2022-11-08T17:28:08.133Z,11.22
2022-11-08T17:30:35.762Z,11.37
2022-11-08T17:33:02.651Z,11.29
2022-11-08T17:35:29.578Z,11.34
2022-11-08T17:37:56.472Z,11.39
2022-11-08T17:40:23.369Z,11.35
2022-11-08T17:42:50.285Z,11.28
2022-11-08T17:45:17.220Z,11.26
2022-11-08T17:47:44.181Z,11.23
2022-11-08T17:50:11.823Z,11.14
2022-11-08T17:52:39.031Z,10.92
2022-11-08T17:55:06.801Z,10.91
2022-11-08T17:57:33.764Z,10.99
2022-11-08T18:00:00.671Z,11.00
2022-11-08T18:02:28.226Z,10.87
2022-11-08T18:04:57.288Z,10.86
2022-11-08T18:07:24.829Z,10.29
2022-11-08T18:09:51.856Z,9.73
2022-11-08T18:12:19.391Z,9.31
2022-11-08T18:14:46.243Z,9.68
2022-11-08T18:17:13.126Z,9.93
2022-11-08T18:19:40.056Z,10.11
2022-11-08T18:22:06.975Z,10.14
2022-11-08T18:24:33.870Z,10.30
2022-11-08T18:27:00.854Z,10.36
2022-11-08T18:29:28.433Z,10.44
2022-11-08T18:31:55.318Z,10.41
2022-11-08T18:34:22.211Z,10.48
2022-11-08T18:36:49.320Z,10.46
2022-11-08T18:39:19.410Z,10.56
2022-11-08T18:41:46.964Z,10.69
2022-11-08T18:44:13.881Z,10.77
2022-11-08T18:46:43.467Z,10.70
2022-11-08T18:49:10.831Z,10.65
2022-11-08T18:51:37.927Z,10.59
2022-11-08T18:54:04.808Z,10.68
2022-11-08T18:56:31.674Z,10.76
2022-11-08T18:58:58.624Z,10.82
2022-11-08T19:01:25.658Z,10.88
2022-11-08T19:03:52.653Z,10.77
2022-11-08T19:06:19.739Z,10.73
2022-11-08T19:08:46.930Z,10.71
2022-11-08T19:11:14.647Z,10.59
2022-11-08T19:13:42.410Z,10.63
2022-11-08T19:16:13.746Z,10.57
2022-11-08T19:18:41.031Z,10.63
2022-11-08T19:21:12.310Z,10.64
2022-11-08T19:23:39.441Z,10.63
2022-11-08T19:26:10.421Z,10.57
2022-11-08T19:28:40.114Z,10.63
2022-11-08T19:31:07.295Z,10.59
2022-11-08T19:33:35.135Z,10.71
2022-11-08T19:36:07.727Z,10.75
2022-11-08T19:38:39.730Z,10.93
2022-11-08T19:41:19.340Z,10.93
2022-11-08T19:43:47.591Z,10.87
2022-11-08T19:46:16.946Z,10.91
2022-11-08T19:48:46.256Z,10.99
2022-11-08T19:51:16.451Z,11.08
2022-11-08T19:53:44.264Z,11.22
2022-11-08T19:56:14.839Z,11.24
2022-11-08T19:58:42.168Z,11.23
2022-11-08T20:01:16.645Z,11.27
2022-11-08T20:03:44.404Z,11.35
2022-11-08T20:06:12.445Z,11.34
2022-11-08T20:08:39.805Z,11.38
2022-11-08T20:11:14.687Z,11.51
2022-11-08T20:13:42.118Z,11.58
2022-11-08T20:16:20.516Z,11.41
2022-11-08T20:18:47.662Z,11.37
2022-11-08T20:21:16.074Z,11.50
2022-11-08T20:23:43.461Z,11.45
2022-11-08T20:26:18.418Z,11.58
2022-11-08T20:28:55.998Z,11.47
2022-11-08T20:31:24.004Z,11.37
2022-11-08T20:33:53.041Z,11.41
2022-11-08T20:36:22.045Z,11.54
2022-11-08T20:38:49.607Z,11.49
2022-11-08T20:41:18.077Z,11.49
2022-11-08T20:43:46.788Z,11.44
2022-11-08T20:46:16.534Z,11.50
2022-11-08T20:48:44.407Z,11.66
2022-11-08T20:51:17.158Z,11.69
2022-11-08T20:53:44.406Z,11.50
2022-11-08T20:56:19.445Z,11.40
2022-11-08T20:58:47.679Z,11.51
2022-11-08T21:01:20.445Z,11.64
2022-11-08T21:03:48.183Z,11.50
2022-11-08T21:06:18.232Z,11.28
2022-11-08T21:09:09.311Z,11.19
2022-11-08T21:11:34.806Z,11.38
2022-11-08T21:14:03.356Z,11.48
2022-11-08T21:16:38.236Z,11.48
2022-11-08T21:19:14.141Z,11.38
2022-11-08T21:21:41.197Z,11.32
2022-11-08T21:24:08.524Z,11.05
2022-11-08T21:26:36.436Z,10.99
2022-11-08T21:29:04.800Z,11.07
2022-11-08T21:31:32.751Z,11.10
2022-11-08T21:34:00.272Z,11.03
2022-11-08T21:36:29.299Z,10.91
2022-11-08T21:38:56.437Z,10.90
2022-11-08T21:41:23.320Z,11.04
2022-11-08T21:43:50.304Z,11.21
2022-11-08T21:46:19.402Z,11.19
2022-11-08T21:48:46.811Z,11.18
2022-11-08T21:51:14.430Z,11.24
2022-11-08T21:53:49.653Z,11.17
2022-11-08T21:56:22.416Z,11.18
2022-11-08T21:58:49.434Z,11.14
2022-11-08T22:01:16.970Z,11.04
2022-11-08T22:03:44.300Z,11.04
2022-11-08T22:06:11.169Z,10.99
2022-11-08T22:08:38.187Z,10.92
2022-11-08T22:11:05.210Z,10.89
2022-11-08T22:13:32.365Z,10.93
2022-11-08T22:15:59.284Z,10.82
2022-11-08T22:18:43.413Z,10.74
2022-11-08T22:21:31.559Z,10.67
2022-11-08T22:23:58.483Z,10.66
2022-11-08T22:26:25.381Z,10.58
2022-11-08T22:28:52.247Z,10.50
2022-11-08T22:31:19.200Z,10.56
2022-11-08T22:33:46.136Z,10.64
2022-11-08T22:36:13.126Z,10.58
2022-11-08T22:38:40.150Z,10.49
2022-11-08T22:41:07.455Z,10.36
2022-11-08T22:43:35.910Z,10.19
2022-11-08T22:46:03.290Z,10.30
2022-11-08T22:48:30.146Z,10.36
2022-11-08T22:50:57.609Z,10.18
2022-11-08T22:53:24.677Z,10.30
2022-11-08T22:55:51.764Z,10.27
2022-11-08T22:58:18.658Z,10.36
2022-11-08T23:03:30.095Z,10.20
2022-11-08T23:05:58.030Z,9.97
2022-11-08T23:08:26.538Z,10.10
2022-11-08T23:11:12.472Z,10.18
2022-11-08T23:13:58.501Z,10.07
2022-11-08T23:16:38.015Z,9.96
2022-11-08T23:19:24.942Z,9.87
2022-11-08T23:22:11.046Z,10.01
2022-11-08T23:24:38.079Z,10.03
2022-11-08T23:27:24.296Z,10.05
2022-11-08T23:30:09.966Z,10.12
2022-11-08T23:32:36.835Z,9.91
2022-11-08T23:35:03.866Z,9.99
2022-11-08T23:37:31.028Z,9.83
2022-11-08T23:40:16.553Z,9.96
2022-11-08T23:43:02.188Z,9.69
2022-11-08T23:45:29.055Z,9.74
2022-11-08T23:47:56.004Z,9.79
2022-11-08T23:50:22.904Z,9.84
2022-11-08T23:52:49.796Z,9.79
2022-11-08T23:55:16.700Z,9.81
2022-11-08T23:57:43.589Z,9.70
